sensor_id;sensor_type;location;lat;lon;timestamp;temperature;humidity
69546;SHT31;56766;52.260;20.746;2022-12-29T00:00:18;5.45;85.11
69546;SHT31;56766;52.260;20.746;2022-12-29T00:03:04;5.45;85.04
69546;SHT31;56766;52.260;20.746;2022-12-29T00:05:31;5.45;84.98
69546;SHT31;56766;52.260;20.746;2022-12-29T00:07:58;5.45;84.95
69546;SHT31;56766;52.260;20.746;2022-12-29T00:10:24;5.46;85.18
69546;SHT31;56766;52.260;20.746;2022-12-29T00:12:51;5.46;85.17
69546;SHT31;56766;52.260;20.746;2022-12-29T00:15:37;5.47;85.30
69546;SHT31;56766;52.260;20.746;2022-12-29T00:18:04;5.49;85.39
69546;SHT31;56766;52.260;20.746;2022-12-29T00:20:34;5.49;85.31
69546;SHT31;56766;52.260;20.746;2022-12-29T00:23:20;5.48;85.30
69546;SHT31;56766;52.260;20.746;2022-12-29T00:26:13;5.46;85.18
69546;SHT31;56766;52.260;20.746;2022-12-29T00:29:00;5.45;85.31
69546;SHT31;56766;52.260;20.746;2022-12-29T00:31:46;5.45;85.05
69546;SHT31;56766;52.260;20.746;2022-12-29T00:34:31;5.47;85.15
69546;SHT31;56766;52.260;20.746;2022-12-29T00:37:17;5.45;85.08
69546;SHT31;56766;52.260;20.746;2022-12-29T00:40:04;5.45;85.04
69546;SHT31;56766;52.260;20.746;2022-12-29T00:42:50;5.46;85.09
69546;SHT31;56766;52.260;20.746;2022-12-29T00:45:35;5.49;84.96
69546;SHT31;56766;52.260;20.746;2022-12-29T00:48:02;5.50;84.84
69546;SHT31;56766;52.260;20.746;2022-12-29T00:50:29;5.52;84.87
69546;SHT31;56766;52.260;20.746;2022-12-29T00:52:56;5.51;84.95
69546;SHT31;56766;52.260;20.746;2022-12-29T00:55:22;5.52;84.99
69546;SHT31;56766;52.260;20.746;2022-12-29T00:57:49;5.53;84.95
69546;SHT31;56766;52.260;20.746;2022-12-29T01:00:16;5.53;85.01
69546;SHT31;56766;52.260;20.746;2022-12-29T01:02:42;5.54;84.95
69546;SHT31;56766;52.260;20.746;2022-12-29T01:05:09;5.56;85.03
69546;SHT31;56766;52.260;20.746;2022-12-29T01:07:36;5.56;85.00
69546;SHT31;56766;52.260;20.746;2022-12-29T01:10:03;5.55;84.90
69546;SHT31;56766;52.260;20.746;2022-12-29T01:12:36;5.55;84.87
69546;SHT31;56766;52.260;20.746;2022-12-29T01:15:13;5.55;84.88
69546;SHT31;56766;52.260;20.746;2022-12-29T01:17:41;5.57;84.86
69546;SHT31;56766;52.260;20.746;2022-12-29T01:20:10;5.55;84.74
69546;SHT31;56766;52.260;20.746;2022-12-29T01:22:38;5.55;84.84
69546;SHT31;56766;52.260;20.746;2022-12-29T01:25:06;5.56;84.82
69546;SHT31;56766;52.260;20.746;2022-12-29T01:27:33;5.55;84.85
69546;SHT31;56766;52.260;20.746;2022-12-29T01:30:00;5.56;84.83
69546;SHT31;56766;52.260;20.746;2022-12-29T01:32:26;5.56;84.46
69546;SHT31;56766;52.260;20.746;2022-12-29T01:34:53;5.56;84.36
69546;SHT31;56766;52.260;20.746;2022-12-29T01:37:20;5.55;84.56
69546;SHT31;56766;52.260;20.746;2022-12-29T01:39:46;5.53;84.58
69546;SHT31;56766;52.260;20.746;2022-12-29T01:42:18;5.54;84.55
69546;SHT31;56766;52.260;20.746;2022-12-29T01:44:58;5.53;84.55
69546;SHT31;56766;52.260;20.746;2022-12-29T01:47:45;5.55;84.66
69546;SHT31;56766;52.260;20.746;2022-12-29T01:50:32;5.57;84.77
69546;SHT31;56766;52.260;20.746;2022-12-29T01:53:17;5.55;84.76
69546;SHT31;56766;52.260;20.746;2022-12-29T01:55:56;5.54;84.78
69546;SHT31;56766;52.260;20.746;2022-12-29T01:58:32;5.53;84.80
69546;SHT31;56766;52.260;20.746;2022-12-29T02:01:02;5.54;84.81
69546;SHT31;56766;52.260;20.746;2022-12-29T02:03:30;5.55;84.76
69546;SHT31;56766;52.260;20.746;2022-12-29T02:06:05;5.54;84.91
69546;SHT31;56766;52.260;20.746;2022-12-29T02:08:38;5.53;84.99
69546;SHT31;56766;52.260;20.746;2022-12-29T02:11:07;5.52;85.18
69546;SHT31;56766;52.260;20.746;2022-12-29T02:13:34;5.50;85.25
69546;SHT31;56766;52.260;20.746;2022-12-29T02:22:08;5.48;85.40
69546;SHT31;56766;52.260;20.746;2022-12-29T02:27:53;5.46;85.62
69546;SHT31;56766;52.260;20.746;2022-12-29T02:33:38;5.43;85.73
69546;SHT31;56766;52.260;20.746;2022-12-29T02:36:43;5.42;85.80
69546;SHT31;56766;52.260;20.746;2022-12-29T02:42:51;5.37;86.05
69546;SHT31;56766;52.260;20.746;2022-12-29T02:45:33;5.34;86.24
69546;SHT31;56766;52.260;20.746;2022-12-29T02:53:21;5.35;86.62
69546;SHT31;56766;52.260;20.746;2022-12-29T02:56:09;5.33;86.70
69546;SHT31;56766;52.260;20.746;2022-12-29T02:58:36;5.30;86.81
69546;SHT31;56766;52.260;20.746;2022-12-29T03:12:39;5.22;87.26
69546;SHT31;56766;52.260;20.746;2022-12-29T03:15:55;5.16;87.40
69546;SHT31;56766;52.260;20.746;2022-12-29T03:18:47;5.11;87.54
69546;SHT31;56766;52.260;20.746;2022-12-29T03:24:29;5.04;87.77
69546;SHT31;56766;52.260;20.746;2022-12-29T03:27:03;5.02;87.89
69546;SHT31;56766;52.260;20.746;2022-12-29T03:29:38;5.01;87.95
69546;SHT31;56766;52.260;20.746;2022-12-29T03:32:12;5.01;88.13
69546;SHT31;56766;52.260;20.746;2022-12-29T03:34:41;5.01;88.17
69546;SHT31;56766;52.260;20.746;2022-12-29T03:37:17;5.01;88.20
69546;SHT31;56766;52.260;20.746;2022-12-29T03:39:48;5.01;88.30
69546;SHT31;56766;52.260;20.746;2022-12-29T03:42:20;4.99;88.29
69546;SHT31;56766;52.260;20.746;2022-12-29T03:44:54;4.97;88.28
69546;SHT31;56766;52.260;20.746;2022-12-29T03:47:24;4.95;88.29
69546;SHT31;56766;52.260;20.746;2022-12-29T03:49:52;4.93;88.21
69546;SHT31;56766;52.260;20.746;2022-12-29T03:52:19;4.89;88.24
69546;SHT31;56766;52.260;20.746;2022-12-29T03:54:46;4.86;88.34
69546;SHT31;56766;52.260;20.746;2022-12-29T03:57:13;4.86;88.48
69546;SHT31;56766;52.260;20.746;2022-12-29T03:59:40;4.87;88.44
69546;SHT31;56766;52.260;20.746;2022-12-29T04:02:06;4.87;88.45
69546;SHT31;56766;52.260;20.746;2022-12-29T04:04:33;4.87;88.48
69546;SHT31;56766;52.260;20.746;2022-12-29T04:07:00;4.85;88.50
69546;SHT31;56766;52.260;20.746;2022-12-29T04:09:26;4.83;88.42
69546;SHT31;56766;52.260;20.746;2022-12-29T04:11:53;4.82;88.53
69546;SHT31;56766;52.260;20.746;2022-12-29T04:14:19;4.82;88.60
69546;SHT31;56766;52.260;20.746;2022-12-29T04:16:46;4.82;88.62
69546;SHT31;56766;52.260;20.746;2022-12-29T04:19:13;4.83;88.68
69546;SHT31;56766;52.260;20.746;2022-12-29T04:21:39;4.81;88.52
69546;SHT31;56766;52.260;20.746;2022-12-29T04:24:06;4.78;88.53
69546;SHT31;56766;52.260;20.746;2022-12-29T04:26:34;4.76;88.50
69546;SHT31;56766;52.260;20.746;2022-12-29T04:29:00;4.73;88.50
69546;SHT31;56766;52.260;20.746;2022-12-29T04:31:27;4.72;88.46
69546;SHT31;56766;52.260;20.746;2022-12-29T04:33:54;4.69;88.44
69546;SHT31;56766;52.260;20.746;2022-12-29T04:36:23;4.69;88.48
69546;SHT31;56766;52.260;20.746;2022-12-29T04:38:50;4.66;88.28
69546;SHT31;56766;52.260;20.746;2022-12-29T04:41:17;4.64;88.27
69546;SHT31;56766;52.260;20.746;2022-12-29T04:43:43;4.64;88.30
69546;SHT31;56766;52.260;20.746;2022-12-29T04:46:10;4.65;88.17
69546;SHT31;56766;52.260;20.746;2022-12-29T04:48:37;4.63;88.02
69546;SHT31;56766;52.260;20.746;2022-12-29T04:51:04;4.62;87.98
69546;SHT31;56766;52.260;20.746;2022-12-29T04:53:31;4.61;87.91
69546;SHT31;56766;52.260;20.746;2022-12-29T04:55:57;4.60;87.97
69546;SHT31;56766;52.260;20.746;2022-12-29T04:58:24;4.59;87.88
69546;SHT31;56766;52.260;20.746;2022-12-29T05:00:51;4.59;87.89
69546;SHT31;56766;52.260;20.746;2022-12-29T05:03:18;4.59;87.79
69546;SHT31;56766;52.260;20.746;2022-12-29T05:05:45;4.57;87.63
69546;SHT31;56766;52.260;20.746;2022-12-29T05:08:11;4.56;87.70
69546;SHT31;56766;52.260;20.746;2022-12-29T05:10:38;4.55;87.72
69546;SHT31;56766;52.260;20.746;2022-12-29T05:13:05;4.55;87.59
69546;SHT31;56766;52.260;20.746;2022-12-29T05:15:31;4.53;87.53
69546;SHT31;56766;52.260;20.746;2022-12-29T05:17:58;4.52;87.48
69546;SHT31;56766;52.260;20.746;2022-12-29T05:20:25;4.52;87.42
69546;SHT31;56766;52.260;20.746;2022-12-29T05:22:52;4.51;87.39
69546;SHT31;56766;52.260;20.746;2022-12-29T05:25:19;4.53;87.40
69546;SHT31;56766;52.260;20.746;2022-12-29T05:27:45;4.53;87.32
69546;SHT31;56766;52.260;20.746;2022-12-29T05:30:12;4.52;87.20
69546;SHT31;56766;52.260;20.746;2022-12-29T05:32:39;4.52;87.19
69546;SHT31;56766;52.260;20.746;2022-12-29T05:35:06;4.52;87.04
69546;SHT31;56766;52.260;20.746;2022-12-29T05:37:34;4.51;86.87
69546;SHT31;56766;52.260;20.746;2022-12-29T05:40:00;4.51;86.86
69546;SHT31;56766;52.260;20.746;2022-12-29T05:42:27;4.51;86.78
69546;SHT31;56766;52.260;20.746;2022-12-29T05:44:54;4.48;86.70
69546;SHT31;56766;52.260;20.746;2022-12-29T05:47:20;4.47;86.78
69546;SHT31;56766;52.260;20.746;2022-12-29T05:49:47;4.46;86.79
69546;SHT31;56766;52.260;20.746;2022-12-29T05:52:14;4.46;86.70
69546;SHT31;56766;52.260;20.746;2022-12-29T05:54:41;4.49;86.70
69546;SHT31;56766;52.260;20.746;2022-12-29T05:57:08;4.50;86.69
69546;SHT31;56766;52.260;20.746;2022-12-29T05:59:36;4.51;86.66
69546;SHT31;56766;52.260;20.746;2022-12-29T06:02:02;4.52;86.52
69546;SHT31;56766;52.260;20.746;2022-12-29T06:04:29;4.55;86.57
69546;SHT31;56766;52.260;20.746;2022-12-29T06:06:57;4.59;86.69
69546;SHT31;56766;52.260;20.746;2022-12-29T06:09:24;4.62;86.72
69546;SHT31;56766;52.260;20.746;2022-12-29T06:11:50;4.64;86.60
69546;SHT31;56766;52.260;20.746;2022-12-29T06:14:17;4.65;86.60
69546;SHT31;56766;52.260;20.746;2022-12-29T06:16:44;4.66;86.41
69546;SHT31;56766;52.260;20.746;2022-12-29T06:19:11;4.66;86.36
69546;SHT31;56766;52.260;20.746;2022-12-29T06:21:37;4.67;86.43
69546;SHT31;56766;52.260;20.746;2022-12-29T06:24:05;4.70;86.44
69546;SHT31;56766;52.260;20.746;2022-12-29T06:26:32;4.73;86.39
69546;SHT31;56766;52.260;20.746;2022-12-29T06:28:58;4.75;86.51
69546;SHT31;56766;52.260;20.746;2022-12-29T06:31:25;4.75;86.48
69546;SHT31;56766;52.260;20.746;2022-12-29T06:33:52;4.74;86.54
69546;SHT31;56766;52.260;20.746;2022-12-29T06:36:19;4.77;86.57
69546;SHT31;56766;52.260;20.746;2022-12-29T06:38:45;4.76;86.43
69546;SHT31;56766;52.260;20.746;2022-12-29T06:41:12;4.77;86.53
69546;SHT31;56766;52.260;20.746;2022-12-29T06:43:39;4.79;86.59
69546;SHT31;56766;52.260;20.746;2022-12-29T06:46:06;4.78;86.52
69546;SHT31;56766;52.260;20.746;2022-12-29T06:48:33;4.78;86.45
69546;SHT31;56766;52.260;20.746;2022-12-29T06:50:59;4.79;86.53
69546;SHT31;56766;52.260;20.746;2022-12-29T06:53:26;4.80;86.52
69546;SHT31;56766;52.260;20.746;2022-12-29T06:55:53;4.81;86.35
69546;SHT31;56766;52.260;20.746;2022-12-29T06:58:20;4.83;86.24
69546;SHT31;56766;52.260;20.746;2022-12-29T07:00:47;4.83;86.15
69546;SHT31;56766;52.260;20.746;2022-12-29T07:03:14;4.84;86.22
69546;SHT31;56766;52.260;20.746;2022-12-29T07:05:41;4.85;86.21
69546;SHT31;56766;52.260;20.746;2022-12-29T07:08:08;4.86;86.22
69546;SHT31;56766;52.260;20.746;2022-12-29T07:10:35;4.87;86.20
69546;SHT31;56766;52.260;20.746;2022-12-29T07:13:03;4.90;86.18
69546;SHT31;56766;52.260;20.746;2022-12-29T07:15:30;4.93;85.94
69546;SHT31;56766;52.260;20.746;2022-12-29T07:17:57;4.97;85.87
69546;SHT31;56766;52.260;20.746;2022-12-29T07:20:23;5.02;85.91
69546;SHT31;56766;52.260;20.746;2022-12-29T07:22:50;5.05;85.87
69546;SHT31;56766;52.260;20.746;2022-12-29T07:25:17;5.08;85.84
69546;SHT31;56766;52.260;20.746;2022-12-29T07:27:44;5.11;85.81
69546;SHT31;56766;52.260;20.746;2022-12-29T07:30:11;5.15;85.83
69546;SHT31;56766;52.260;20.746;2022-12-29T07:32:38;5.19;85.71
69546;SHT31;56766;52.260;20.746;2022-12-29T07:35:06;5.24;85.59
69546;SHT31;56766;52.260;20.746;2022-12-29T07:37:33;5.28;85.49
69546;SHT31;56766;52.260;20.746;2022-12-29T07:40:02;5.35;85.40
69546;SHT31;56766;52.260;20.746;2022-12-29T07:42:31;5.39;85.24
69546;SHT31;56766;52.260;20.746;2022-12-29T07:44:58;5.45;85.06
69546;SHT31;56766;52.260;20.746;2022-12-29T07:47:25;5.50;85.09
69546;SHT31;56766;52.260;20.746;2022-12-29T07:49:53;5.55;85.03
69546;SHT31;56766;52.260;20.746;2022-12-29T07:52:20;5.60;84.99
69546;SHT31;56766;52.260;20.746;2022-12-29T07:54:46;5.66;84.83
69546;SHT31;56766;52.260;20.746;2022-12-29T07:57:13;5.70;84.79
69546;SHT31;56766;52.260;20.746;2022-12-29T07:59:40;5.76;84.61
69546;SHT31;56766;52.260;20.746;2022-12-29T08:02:09;5.84;84.53
69546;SHT31;56766;52.260;20.746;2022-12-29T08:04:37;5.91;84.47
69546;SHT31;56766;52.260;20.746;2022-12-29T08:07:04;5.98;84.20
69546;SHT31;56766;52.260;20.746;2022-12-29T08:09:31;6.05;84.11
69546;SHT31;56766;52.260;20.746;2022-12-29T08:11:58;6.12;83.89
69546;SHT31;56766;52.260;20.746;2022-12-29T08:14:25;6.18;83.54
69546;SHT31;56766;52.260;20.746;2022-12-29T08:16:51;6.23;83.66
69546;SHT31;56766;52.260;20.746;2022-12-29T08:19:18;6.25;83.46
69546;SHT31;56766;52.260;20.746;2022-12-29T08:21:45;6.26;83.08
69546;SHT31;56766;52.260;20.746;2022-12-29T08:24:11;6.31;83.14
69546;SHT31;56766;52.260;20.746;2022-12-29T08:26:38;6.36;82.97
69546;SHT31;56766;52.260;20.746;2022-12-29T08:29:05;6.42;82.82
69546;SHT31;56766;52.260;20.746;2022-12-29T08:31:31;6.46;82.75
69546;SHT31;56766;52.260;20.746;2022-12-29T08:33:59;6.50;82.52
69546;SHT31;56766;52.260;20.746;2022-12-29T08:36:26;6.54;82.51
69546;SHT31;56766;52.260;20.746;2022-12-29T08:38:53;6.59;82.54
69546;SHT31;56766;52.260;20.746;2022-12-29T08:41:19;6.65;82.26
69546;SHT31;56766;52.260;20.746;2022-12-29T08:43:47;6.68;82.51
69546;SHT31;56766;52.260;20.746;2022-12-29T08:46:16;6.75;82.49
69546;SHT31;56766;52.260;20.746;2022-12-29T08:48:43;6.79;82.50
69546;SHT31;56766;52.260;20.746;2022-12-29T08:51:09;6.83;82.42
69546;SHT31;56766;52.260;20.746;2022-12-29T08:53:36;6.89;82.34
69546;SHT31;56766;52.260;20.746;2022-12-29T08:56:03;6.92;82.38
69546;SHT31;56766;52.260;20.746;2022-12-29T08:58:30;6.97;82.20
69546;SHT31;56766;52.260;20.746;2022-12-29T09:00:58;7.03;82.05
69546;SHT31;56766;52.260;20.746;2022-12-29T09:03:26;7.11;82.26
69546;SHT31;56766;52.260;20.746;2022-12-29T09:05:54;7.23;82.29
69546;SHT31;56766;52.260;20.746;2022-12-29T09:08:22;7.34;82.26
69546;SHT31;56766;52.260;20.746;2022-12-29T09:10:50;7.43;82.09
69546;SHT31;56766;52.260;20.746;2022-12-29T09:13:18;7.50;81.87
69546;SHT31;56766;52.260;20.746;2022-12-29T09:15:45;7.53;81.37
69546;SHT31;56766;52.260;20.746;2022-12-29T09:18:12;7.53;81.49
69546;SHT31;56766;52.260;20.746;2022-12-29T09:20:39;7.51;81.31
69546;SHT31;56766;52.260;20.746;2022-12-29T09:23:05;7.48;81.48
69546;SHT31;56766;52.260;20.746;2022-12-29T09:25:33;7.45;81.12
69546;SHT31;56766;52.260;20.746;2022-12-29T09:28:00;7.39;80.46
69546;SHT31;56766;52.260;20.746;2022-12-29T09:30:29;7.35;80.54
69546;SHT31;56766;52.260;20.746;2022-12-29T09:32:56;7.35;80.28
69546;SHT31;56766;52.260;20.746;2022-12-29T09:35:22;7.36;80.42
69546;SHT31;56766;52.260;20.746;2022-12-29T09:37:49;7.36;80.73
69546;SHT31;56766;52.260;20.746;2022-12-29T09:40:41;7.38;80.45
69546;SHT31;56766;52.260;20.746;2022-12-29T09:52:15;7.53;80.71
69546;SHT31;56766;52.260;20.746;2022-12-29T09:55:03;7.53;80.79
69546;SHT31;56766;52.260;20.746;2022-12-29T10:02:58;7.51;80.39
69546;SHT31;56766;52.260;20.746;2022-12-29T10:06:06;7.47;80.32
69546;SHT31;56766;52.260;20.746;2022-12-29T10:20:49;7.58;79.68
69546;SHT31;56766;52.260;20.746;2022-12-29T10:23:40;7.63;79.98
69546;SHT31;56766;52.260;20.746;2022-12-29T10:26:21;7.69;80.04
69546;SHT31;56766;52.260;20.746;2022-12-29T10:29:18;7.72;79.71
69546;SHT31;56766;52.260;20.746;2022-12-29T10:32:00;7.77;79.72
69546;SHT31;56766;52.260;20.746;2022-12-29T10:34:43;7.84;79.48
69546;SHT31;56766;52.260;20.746;2022-12-29T10:39:45;7.99;79.68
69546;SHT31;56766;52.260;20.746;2022-12-29T10:42:36;8.03;79.55
69546;SHT31;56766;52.260;20.746;2022-12-29T10:45:13;8.02;79.65
69546;SHT31;56766;52.260;20.746;2022-12-29T10:48:01;8.03;79.63
69546;SHT31;56766;52.260;20.746;2022-12-29T10:50:33;8.08;79.72
69546;SHT31;56766;52.260;20.746;2022-12-29T10:53:04;8.11;79.83
69546;SHT31;56766;52.260;20.746;2022-12-29T10:55:35;8.16;79.77
69546;SHT31;56766;52.260;20.746;2022-12-29T10:58:07;8.18;79.26
69546;SHT31;56766;52.260;20.746;2022-12-29T11:00:39;8.19;79.26
69546;SHT31;56766;52.260;20.746;2022-12-29T11:06:15;8.17;79.18
69546;SHT31;56766;52.260;20.746;2022-12-29T11:08:57;8.18;79.36
69546;SHT31;56766;52.260;20.746;2022-12-29T11:11:34;8.19;79.28
69546;SHT31;56766;52.260;20.746;2022-12-29T11:14:13;8.15;79.09
69546;SHT31;56766;52.260;20.746;2022-12-29T11:16:41;8.12;78.90
69546;SHT31;56766;52.260;20.746;2022-12-29T11:19:25;8.10;78.76
69546;SHT31;56766;52.260;20.746;2022-12-29T11:21:55;8.08;79.12
69546;SHT31;56766;52.260;20.746;2022-12-29T11:24:25;8.07;79.05
69546;SHT31;56766;52.260;20.746;2022-12-29T11:27:10;8.07;78.62
69546;SHT31;56766;52.260;20.746;2022-12-29T11:29:43;8.06;78.41
69546;SHT31;56766;52.260;20.746;2022-12-29T11:32:23;8.03;78.25
69546;SHT31;56766;52.260;20.746;2022-12-29T11:34:52;8.02;78.41
69546;SHT31;56766;52.260;20.746;2022-12-29T11:37:28;8.00;78.53
69546;SHT31;56766;52.260;20.746;2022-12-29T11:42:41;7.98;78.78
69546;SHT31;56766;52.260;20.746;2022-12-29T11:45:22;8.01;78.65
69546;SHT31;56766;52.260;20.746;2022-12-29T11:47:59;8.03;78.64
69546;SHT31;56766;52.260;20.746;2022-12-29T11:50:42;8.05;78.69
69546;SHT31;56766;52.260;20.746;2022-12-29T11:53:24;8.08;78.38
69546;SHT31;56766;52.260;20.746;2022-12-29T11:56:11;8.11;78.74
69546;SHT31;56766;52.260;20.746;2022-12-29T11:58:42;8.13;78.71
69546;SHT31;56766;52.260;20.746;2022-12-29T12:04:08;8.20;78.19
69546;SHT31;56766;52.260;20.746;2022-12-29T12:06:50;8.25;78.34
69546;SHT31;56766;52.260;20.746;2022-12-29T12:10:04;8.32;78.47
69546;SHT31;56766;52.260;20.746;2022-12-29T12:12:50;8.39;78.42
69546;SHT31;56766;52.260;20.746;2022-12-29T12:15:27;8.42;78.30
69546;SHT31;56766;52.260;20.746;2022-12-29T12:18:24;8.41;78.13
69546;SHT31;56766;52.260;20.746;2022-12-29T12:21:04;8.41;78.16
69546;SHT31;56766;52.260;20.746;2022-12-29T12:26:37;8.42;78.12
69546;SHT31;56766;52.260;20.746;2022-12-29T12:29:26;8.43;78.01
69546;SHT31;56766;52.260;20.746;2022-12-29T12:32:14;8.43;78.13
69546;SHT31;56766;52.260;20.746;2022-12-29T12:34:48;8.44;78.13
69546;SHT31;56766;52.260;20.746;2022-12-29T12:37:41;8.44;78.01
69546;SHT31;56766;52.260;20.746;2022-12-29T12:43:43;8.44;77.53
69546;SHT31;56766;52.260;20.746;2022-12-29T13:04:12;8.65;77.74
69546;SHT31;56766;52.260;20.746;2022-12-29T13:15:42;8.64;77.26
69546;SHT31;56766;52.260;20.746;2022-12-29T13:18:37;8.66;77.47
69546;SHT31;56766;52.260;20.746;2022-12-29T13:21:48;8.65;77.56
69546;SHT31;56766;52.260;20.746;2022-12-29T13:27:20;8.60;77.37
69546;SHT31;56766;52.260;20.746;2022-12-29T13:30:07;8.56;77.53
69546;SHT31;56766;52.260;20.746;2022-12-29T13:38:38;8.46;77.61
69546;SHT31;56766;52.260;20.746;2022-12-29T13:44:04;8.44;77.63
69546;SHT31;56766;52.260;20.746;2022-12-29T13:46:40;8.40;77.84
69546;SHT31;56766;52.260;20.746;2022-12-29T13:49:17;8.37;78.07
69546;SHT31;56766;52.260;20.746;2022-12-29T13:51:50;8.35;78.22
69546;SHT31;56766;52.260;20.746;2022-12-29T13:55:00;8.32;78.28
69546;SHT31;56766;52.260;20.746;2022-12-29T13:58:13;8.31;78.07
69546;SHT31;56766;52.260;20.746;2022-12-29T14:03:53;8.24;78.29
69546;SHT31;56766;52.260;20.746;2022-12-29T14:08:58;8.19;78.61
69546;SHT31;56766;52.260;20.746;2022-12-29T14:11:40;8.18;78.79
69546;SHT31;56766;52.260;20.746;2022-12-29T14:14:22;8.17;78.88
69546;SHT31;56766;52.260;20.746;2022-12-29T14:16:52;8.14;78.87
69546;SHT31;56766;52.260;20.746;2022-12-29T14:19:30;8.11;78.89
69546;SHT31;56766;52.260;20.746;2022-12-29T14:22:09;8.07;78.77
69546;SHT31;56766;52.260;20.746;2022-12-29T14:24:45;8.04;78.87
69546;SHT31;56766;52.260;20.746;2022-12-29T14:34:48;7.90;79.13
69546;SHT31;56766;52.260;20.746;2022-12-29T14:37:33;7.88;79.07
69546;SHT31;56766;52.260;20.746;2022-12-29T14:40:05;7.88;79.21
69546;SHT31;56766;52.260;20.746;2022-12-29T14:42:49;7.87;79.31
69546;SHT31;56766;52.260;20.746;2022-12-29T14:47:48;7.88;79.19
69546;SHT31;56766;52.260;20.746;2022-12-29T14:53:06;7.83;79.43
69546;SHT31;56766;52.260;20.746;2022-12-29T14:55:57;7.76;79.51
69546;SHT31;56766;52.260;20.746;2022-12-29T14:58:32;7.69;79.47
69546;SHT31;56766;52.260;20.746;2022-12-29T15:04:02;7.56;79.73
69546;SHT31;56766;52.260;20.746;2022-12-29T15:06:40;7.48;79.76
69546;SHT31;56766;52.260;20.746;2022-12-29T15:17:55;7.37;79.87
69546;SHT31;56766;52.260;20.746;2022-12-29T15:20:28;7.38;79.93
69546;SHT31;56766;52.260;20.746;2022-12-29T15:23:02;7.35;80.00
69546;SHT31;56766;52.260;20.746;2022-12-29T15:25:35;7.33;80.12
69546;SHT31;56766;52.260;20.746;2022-12-29T15:28:06;7.29;80.25
69546;SHT31;56766;52.260;20.746;2022-12-29T15:30:33;7.25;80.33
69546;SHT31;56766;52.260;20.746;2022-12-29T15:33:00;7.22;80.32
69546;SHT31;56766;52.260;20.746;2022-12-29T15:35:32;7.19;80.47
69546;SHT31;56766;52.260;20.746;2022-12-29T15:38:14;7.15;80.49
69546;SHT31;56766;52.260;20.746;2022-12-29T15:40:44;7.12;80.58
69546;SHT31;56766;52.260;20.746;2022-12-29T15:43:36;7.10;80.65
69546;SHT31;56766;52.260;20.746;2022-12-29T15:46:05;7.06;80.73
69546;SHT31;56766;52.260;20.746;2022-12-29T15:48:32;7.04;80.80
69546;SHT31;56766;52.260;20.746;2022-12-29T15:51:00;7.02;80.76
69546;SHT31;56766;52.260;20.746;2022-12-29T15:53:30;7.00;80.78
69546;SHT31;56766;52.260;20.746;2022-12-29T15:56:09;6.97;80.86
69546;SHT31;56766;52.260;20.746;2022-12-29T15:58:49;6.94;80.91
69546;SHT31;56766;52.260;20.746;2022-12-29T16:01:24;6.92;81.01
69546;SHT31;56766;52.260;20.746;2022-12-29T16:03:58;6.90;81.10
69546;SHT31;56766;52.260;20.746;2022-12-29T16:06:39;6.89;81.19
69546;SHT31;56766;52.260;20.746;2022-12-29T16:09:17;6.87;81.22
69546;SHT31;56766;52.260;20.746;2022-12-29T16:11:51;6.87;81.23
69546;SHT31;56766;52.260;20.746;2022-12-29T16:14:30;6.85;81.21
69546;SHT31;56766;52.260;20.746;2022-12-29T16:17:26;6.84;81.35
69546;SHT31;56766;52.260;20.746;2022-12-29T16:20:17;6.85;81.40
69546;SHT31;56766;52.260;20.746;2022-12-29T16:22:55;6.86;81.43
69546;SHT31;56766;52.260;20.746;2022-12-29T16:28:02;6.87;81.53
69546;SHT31;56766;52.260;20.746;2022-12-29T16:30:40;6.92;81.52
69546;SHT31;56766;52.260;20.746;2022-12-29T16:33:36;6.97;81.53
69546;SHT31;56766;52.260;20.746;2022-12-29T16:39:18;7.11;81.50
69546;SHT31;56766;52.260;20.746;2022-12-29T16:41:59;7.20;81.45
69546;SHT31;56766;52.260;20.746;2022-12-29T16:44:29;7.26;81.33
69546;SHT31;56766;52.260;20.746;2022-12-29T16:49:39;7.37;81.29
69546;SHT31;56766;52.260;20.746;2022-12-29T16:52:23;7.44;81.30
69546;SHT31;56766;52.260;20.746;2022-12-29T16:54:58;7.47;81.29
69546;SHT31;56766;52.260;20.746;2022-12-29T16:57:31;7.51;81.24
69546;SHT31;56766;52.260;20.746;2022-12-29T17:00:05;7.53;81.14
69546;SHT31;56766;52.260;20.746;2022-12-29T17:02:35;7.57;81.19
69546;SHT31;56766;52.260;20.746;2022-12-29T17:05:15;7.59;81.19
69546;SHT31;56766;52.260;20.746;2022-12-29T17:07:44;7.63;81.12
69546;SHT31;56766;52.260;20.746;2022-12-29T17:10:13;7.64;81.03
69546;SHT31;56766;52.260;20.746;2022-12-29T17:12:43;7.67;81.00
69546;SHT31;56766;52.260;20.746;2022-12-29T17:15:18;7.70;80.99
69546;SHT31;56766;52.260;20.746;2022-12-29T17:17:55;7.72;80.82
69546;SHT31;56766;52.260;20.746;2022-12-29T17:20:25;7.74;80.83
69546;SHT31;56766;52.260;20.746;2022-12-29T17:22:54;7.77;80.76
69546;SHT31;56766;52.260;20.746;2022-12-29T17:25:30;7.76;80.83
69546;SHT31;56766;52.260;20.746;2022-12-29T17:28:04;7.76;80.80
69546;SHT31;56766;52.260;20.746;2022-12-29T17:30:57;7.75;80.64
69546;SHT31;56766;52.260;20.746;2022-12-29T17:33:33;7.77;80.70
69546;SHT31;56766;52.260;20.746;2022-12-29T17:36:02;7.78;80.70
69546;SHT31;56766;52.260;20.746;2022-12-29T17:38:36;7.77;80.52
69546;SHT31;56766;52.260;20.746;2022-12-29T17:41:03;7.78;80.69
69546;SHT31;56766;52.260;20.746;2022-12-29T17:43:35;7.77;80.74
69546;SHT31;56766;52.260;20.746;2022-12-29T17:46:01;7.77;80.72
69546;SHT31;56766;52.260;20.746;2022-12-29T17:48:31;7.76;80.70
69546;SHT31;56766;52.260;20.746;2022-12-29T17:50:58;7.76;80.72
69546;SHT31;56766;52.260;20.746;2022-12-29T17:53:28;7.76;80.81
69546;SHT31;56766;52.260;20.746;2022-12-29T17:55:55;7.76;80.85
69546;SHT31;56766;52.260;20.746;2022-12-29T17:58:23;7.75;80.84
69546;SHT31;56766;52.260;20.746;2022-12-29T18:00:54;7.73;80.84
69546;SHT31;56766;52.260;20.746;2022-12-29T18:03:33;7.74;80.82
69546;SHT31;56766;52.260;20.746;2022-12-29T18:06:03;7.73;80.86
69546;SHT31;56766;52.260;20.746;2022-12-29T18:08:38;7.73;80.80
69546;SHT31;56766;52.260;20.746;2022-12-29T18:11:24;7.73;80.70
69546;SHT31;56766;52.260;20.746;2022-12-29T18:13:53;7.73;80.62
69546;SHT31;56766;52.260;20.746;2022-12-29T18:16:21;7.71;80.59
69546;SHT31;56766;52.260;20.746;2022-12-29T18:18:48;7.72;80.71
69546;SHT31;56766;52.260;20.746;2022-12-29T18:21:20;7.71;80.67
69546;SHT31;56766;52.260;20.746;2022-12-29T18:23:49;7.72;80.52
69546;SHT31;56766;52.260;20.746;2022-12-29T18:26:25;7.73;80.34
69546;SHT31;56766;52.260;20.746;2022-12-29T18:28:55;7.73;80.42
69546;SHT31;56766;52.260;20.746;2022-12-29T18:31:28;7.70;80.50
69546;SHT31;56766;52.260;20.746;2022-12-29T18:33:59;7.65;80.50
69546;SHT31;56766;52.260;20.746;2022-12-29T18:36:27;7.63;80.50
69546;SHT31;56766;52.260;20.746;2022-12-29T18:38:54;7.58;80.52
69546;SHT31;56766;52.260;20.746;2022-12-29T18:41:24;7.54;80.65